createdAt,value
2023-01-13T00:02:35.351Z,53.25
2023-01-13T00:07:42.169Z,53.31
2023-01-13T00:12:46.779Z,55.30
2023-01-13T00:17:52.956Z,54.67
2023-01-13T00:22:58.008Z,54.42
2023-01-13T00:28:02.647Z,53.73
2023-01-13T00:33:07.263Z,55.39
2023-01-13T00:38:12.997Z,53.15
2023-01-13T00:43:32.766Z,53.88
2023-01-13T00:48:40.775Z,53.27
2023-01-13T00:53:48.798Z,53.13
2023-01-13T00:58:53.438Z,53.65
2023-01-13T01:03:58.331Z,54.67
2023-01-13T01:09:06.729Z,53.63
2023-01-13T01:14:17.096Z,53.59
2023-01-13T01:19:23.331Z,52.65
2023-01-13T01:24:28.733Z,53.82
2023-01-13T01:29:34.301Z,55.71
2023-01-13T01:34:40.378Z,56.27
2023-01-13T01:39:47.316Z,60.35
2023-01-13T01:45:02.523Z,51.98
2023-01-13T01:50:08.885Z,51.85
2023-01-13T01:55:23.208Z,51.31
2023-01-13T02:00:30.465Z,52.48
2023-01-13T02:05:40.204Z,53.61
2023-01-13T02:10:48.305Z,51.33
2023-01-13T02:16:19.106Z,51.60
2023-01-13T02:21:49.639Z,51.24
2023-01-13T02:27:31.099Z,51.51
2023-01-13T02:32:55.384Z,51.24
2023-01-13T02:38:05.383Z,51.13
2023-01-13T02:43:59.367Z,52.38
2023-01-13T02:49:11.771Z,51.37
2023-01-13T02:54:23.786Z,51.17
2023-01-13T02:59:31.488Z,51.35
2023-01-13T03:05:00.070Z,51.02
2023-01-13T03:10:09.218Z,51.56
2023-01-13T03:15:20.344Z,51.15
2023-01-13T03:20:31.593Z,52.06
2023-01-13T03:25:46.747Z,52.72
2023-01-13T03:31:00.798Z,52.19
2023-01-13T03:36:13.461Z,51.57
2023-01-13T03:41:31.399Z,51.96
2023-01-13T03:46:56.307Z,52.03
2023-01-13T03:52:07.668Z,51.95
2023-01-13T03:57:16.737Z,51.64
2023-01-13T04:02:49.337Z,51.57
2023-01-13T04:08:17.427Z,51.12
2023-01-13T04:13:23.692Z,51.69
2023-01-13T04:18:31.942Z,51.96
2023-01-13T04:23:37.875Z,52.09
2023-01-13T04:28:43.301Z,52.27
2023-01-13T04:33:50.747Z,52.35
2023-01-13T04:38:59.364Z,52.21
2023-01-13T04:44:05.796Z,51.74
2023-01-13T04:49:11.079Z,51.70
2023-01-13T04:54:17.688Z,51.96
2023-01-13T04:59:32.802Z,53.05
2023-01-13T05:16:15.343Z,51.79
2023-01-13T05:21:59.708Z,51.37
2023-01-13T05:27:41.371Z,51.41
2023-01-13T05:32:53.572Z,51.42
2023-01-13T05:37:58.685Z,51.49
2023-01-13T05:43:24.410Z,52.27
2023-01-13T05:48:35.280Z,53.13
2023-01-13T05:53:43.383Z,51.76
2023-01-13T05:58:48.269Z,51.45
2023-01-13T06:03:53.074Z,51.55
2023-01-13T06:08:57.831Z,51.38
2023-01-13T06:14:04.646Z,51.72
2023-01-13T06:54:27.680Z,54.17
2023-01-13T06:59:37.564Z,53.77
2023-01-13T07:04:43.968Z,53.20
2023-01-13T07:09:50.942Z,52.94
2023-01-13T07:15:17.509Z,53.81
2023-01-13T07:20:24.387Z,51.69
2023-01-13T07:25:29.335Z,50.58
2023-01-13T07:30:34.217Z,51.11
2023-01-13T07:35:39.035Z,50.24
2023-01-13T07:40:43.845Z,50.09
2023-01-13T07:45:50.295Z,50.57
2023-01-13T07:50:55.980Z,49.90
2023-01-13T07:56:01.869Z,49.79
2023-01-13T08:01:15.382Z,49.87
2023-01-13T08:06:20.577Z,49.40
2023-01-13T08:11:25.447Z,49.50
2023-01-13T08:16:30.352Z,49.43
2023-01-13T08:21:36.323Z,49.14
2023-01-13T08:26:41.139Z,48.33
2023-01-13T08:31:45.966Z,47.09
2023-01-13T08:36:54.977Z,47.30
2023-01-13T08:42:02.787Z,45.66
2023-01-13T08:47:10.039Z,46.13
2023-01-13T08:52:17.178Z,43.83
2023-01-13T08:57:22.003Z,45.80
2023-01-13T09:02:27.895Z,45.47
2023-01-13T09:07:34.411Z,44.06
2023-01-13T09:12:57.144Z,45.02
2023-01-13T09:18:03.069Z,43.58
2023-01-13T09:23:10.629Z,42.79
2023-01-13T09:28:15.615Z,43.63
2023-01-13T09:33:38.550Z,43.44
2023-01-13T09:38:43.203Z,42.82
2023-01-13T09:43:57.979Z,41.49
2023-01-13T09:49:04.931Z,41.43
2023-01-13T09:54:20.265Z,41.27
2023-01-13T09:59:28.213Z,40.06
2023-01-13T10:04:34.437Z,40.39
2023-01-13T10:09:55.485Z,40.27
2023-01-13T10:15:00.427Z,41.01
2023-01-13T10:20:26.175Z,40.54
2023-01-13T10:26:25.436Z,41.50
2023-01-13T10:31:31.782Z,40.84
2023-01-13T10:36:37.703Z,40.39
2023-01-13T10:41:47.843Z,40.32
2023-01-13T10:46:59.156Z,39.73
2023-01-13T10:52:06.255Z,38.67
2023-01-13T10:57:31.274Z,38.58
2023-01-13T11:02:38.116Z,38.57
2023-01-13T11:07:54.852Z,39.45
2023-01-13T11:13:02.887Z,39.29
2023-01-13T11:18:18.985Z,40.17
2023-01-13T11:23:30.659Z,39.37
2023-01-13T11:28:43.162Z,39.80
2023-01-13T11:34:23.535Z,38.96
2023-01-13T11:39:46.907Z,39.56
2023-01-13T11:45:15.208Z,40.70
2023-01-13T11:50:46.475Z,40.67
2023-01-13T11:56:15.010Z,40.38
2023-01-13T12:01:38.471Z,40.32
2023-01-13T12:06:46.108Z,39.94
2023-01-13T12:12:18.212Z,41.00
2023-01-13T12:18:00.531Z,39.79
2023-01-13T12:23:38.402Z,39.17
2023-01-13T12:28:56.538Z,38.57
2023-01-13T12:34:21.577Z,38.86
2023-01-13T12:39:28.060Z,39.13
2023-01-13T12:44:35.839Z,37.50
2023-01-13T12:49:42.857Z,37.89
2023-01-13T12:54:50.513Z,38.14
2023-01-13T13:00:02.064Z,38.80
2023-01-13T13:05:26.781Z,39.41
2023-01-13T13:10:47.782Z,40.49
2023-01-13T13:16:44.349Z,41.24
2023-01-13T13:22:17.351Z,41.56
2023-01-13T13:27:41.429Z,41.96
2023-01-13T13:33:09.652Z,41.97
2023-01-13T13:38:43.725Z,41.65
2023-01-13T13:44:07.629Z,41.64
2023-01-13T13:49:13.701Z,41.66
2023-01-13T13:54:27.745Z,41.63
2023-01-13T13:59:35.021Z,40.14
2023-01-13T14:04:41.278Z,40.08
2023-01-13T14:09:58.145Z,39.82
2023-01-13T14:15:03.131Z,39.14
2023-01-13T14:20:17.690Z,40.04
2023-01-13T14:25:50.087Z,39.79
2023-01-13T14:30:56.557Z,38.78
2023-01-13T14:36:14.335Z,39.24
2023-01-13T14:41:27.222Z,38.10
2023-01-13T14:46:45.319Z,37.20
2023-01-13T14:51:51.322Z,37.03
2023-01-13T14:57:28.890Z,36.13
2023-01-13T15:02:34.804Z,36.05
2023-01-13T15:07:39.896Z,36.84
2023-01-13T15:12:48.501Z,35.95
2023-01-13T15:17:56.370Z,35.03
2023-01-13T15:23:02.483Z,35.61
2023-01-13T15:28:09.602Z,34.23
2023-01-13T15:33:16.191Z,34.90
2023-01-13T15:38:24.932Z,33.95
2023-01-13T15:43:48.146Z,33.09
2023-01-13T15:48:54.875Z,32.51
2023-01-13T15:54:03.886Z,32.86
2023-01-13T15:59:19.467Z,34.00
2023-01-13T16:04:24.650Z,33.31
2023-01-13T16:09:29.608Z,34.38
2023-01-13T16:14:34.459Z,33.90
2023-01-13T16:19:39.459Z,32.60
2023-01-13T16:24:46.945Z,33.72
2023-01-13T16:29:53.796Z,32.41
2023-01-13T16:34:59.789Z,31.69
2023-01-13T16:40:04.912Z,31.92
2023-01-13T16:45:11.059Z,31.51
2023-01-13T16:50:30.957Z,31.33
2023-01-13T16:55:35.874Z,30.74
2023-01-13T17:00:40.852Z,30.65
2023-01-13T17:05:53.082Z,29.98
2023-01-13T17:10:57.909Z,30.49
2023-01-13T17:16:03.343Z,29.69
2023-01-13T17:21:09.522Z,31.54
2023-01-13T17:26:34.114Z,29.44
2023-01-13T17:31:39.101Z,29.71
2023-01-13T17:36:46.883Z,30.45
2023-01-13T17:41:52.413Z,29.17
2023-01-13T17:46:56.945Z,28.90
2023-01-13T17:52:01.663Z,29.91
2023-01-13T17:57:07.005Z,29.68
2023-01-13T18:02:14.002Z,29.60
2023-01-13T18:07:19.006Z,29.21
2023-01-13T18:12:23.621Z,29.93
2023-01-13T18:17:28.166Z,28.69
2023-01-13T18:22:50.811Z,28.83
2023-01-13T18:27:55.410Z,29.61
2023-01-13T18:33:00.524Z,28.42
2023-01-13T18:38:05.132Z,28.52
2023-01-13T18:43:09.676Z,29.11
2023-01-13T18:48:14.255Z,28.62
2023-01-13T18:53:18.839Z,28.39
2023-01-13T18:58:23.910Z,29.49
2023-01-13T19:03:30.251Z,28.76
2023-01-13T19:08:35.378Z,29.31
2023-01-13T19:13:40.220Z,29.69
2023-01-13T19:18:45.002Z,28.93
2023-01-13T19:23:49.575Z,28.76
2023-01-13T19:28:54.451Z,30.19
2023-01-13T19:33:59.898Z,29.10
2023-01-13T19:39:04.460Z,29.72
2023-01-13T19:44:30.994Z,29.84
2023-01-13T19:49:35.704Z,30.33
2023-01-13T19:54:40.255Z,29.07
2023-01-13T19:59:46.614Z,30.08
2023-01-13T20:04:51.246Z,29.46
2023-01-13T20:09:57.668Z,30.15
2023-01-13T20:15:03.590Z,28.79
2023-01-13T20:20:09.263Z,30.32
2023-01-13T20:25:19.740Z,29.40
2023-01-13T20:30:27.385Z,29.95
2023-01-13T20:35:32.012Z,29.09
2023-01-13T20:40:36.543Z,30.20
2023-01-13T20:45:41.690Z,29.43
2023-01-13T20:50:46.316Z,29.45
2023-01-13T20:55:50.856Z,30.08
2023-01-13T21:01:00.666Z,28.78
2023-01-13T21:06:05.361Z,28.90
2023-01-13T21:11:12.691Z,28.74
2023-01-13T21:16:18.573Z,28.71
2023-01-13T21:21:23.378Z,29.08
2023-01-13T21:26:27.943Z,29.05
2023-01-13T21:31:32.600Z,28.67
2023-01-13T21:36:37.210Z,28.72
2023-01-13T21:41:59.694Z,28.08
2023-01-13T21:47:22.459Z,28.14
2023-01-13T21:52:27.411Z,28.12
2023-01-13T21:57:33.611Z,28.47
2023-01-13T22:02:39.375Z,27.57
2023-01-13T22:07:44.338Z,28.12
2023-01-13T22:12:49.442Z,27.71
2023-01-13T22:17:55.797Z,27.37
2023-01-13T22:23:00.368Z,28.00
2023-01-13T22:28:07.258Z,27.77
2023-01-13T22:33:11.851Z,26.58
2023-01-13T22:38:16.961Z,27.15
2023-01-13T22:43:21.678Z,26.98
2023-01-13T22:48:26.655Z,27.21
2023-01-13T22:53:31.219Z,25.82
2023-01-13T22:58:36.695Z,26.74
2023-01-13T23:03:43.107Z,26.18
2023-01-13T23:08:48.465Z,27.13
2023-01-13T23:13:58.702Z,26.51
2023-01-13T23:19:03.830Z,26.55
2023-01-13T23:24:09.372Z,26.31
2023-01-13T23:29:15.187Z,25.92
2023-01-13T23:34:19.858Z,25.46
2023-01-13T23:39:25.768Z,26.49
2023-01-13T23:44:31.742Z,27.15
2023-01-13T23:49:37.343Z,26.69
2023-01-13T23:54:41.872Z,25.61
2023-01-13T23:59:46.481Z,25.61
